createdAt,value
2022-11-16T00:01:46.355Z,55.37
2022-11-16T00:04:13.359Z,56.43
2022-11-16T00:06:40.549Z,52.93
2022-11-16T00:09:23.029Z,56.63
2022-11-16T00:11:52.466Z,55.30
2022-11-16T00:14:21.071Z,48.17
2022-11-16T00:16:48.232Z,50.40
2022-11-16T00:19:15.356Z,50.30
2022-11-16T00:21:45.091Z,54.27
2022-11-16T00:24:17.965Z,52.27
2022-11-16T00:26:45.435Z,54.07
2022-11-16T00:29:21.170Z,47.23
2022-11-16T00:31:49.103Z,51.03
2022-11-16T00:34:16.509Z,43.13
2022-11-16T00:36:43.534Z,46.33
2022-11-16T00:39:14.921Z,48.33
2022-11-16T00:41:42.470Z,47.60
2022-11-16T00:44:10.118Z,50.57
2022-11-16T00:46:37.593Z,48.30
2022-11-16T00:49:08.289Z,52.13
2022-11-16T00:51:36.469Z,48.87
2022-11-16T00:54:05.863Z,45.33
2022-11-16T00:56:36.048Z,46.67
2022-11-16T00:59:03.681Z,47.97
2022-11-16T01:01:30.593Z,42.90
2022-11-16T01:03:57.565Z,40.60
2022-11-16T01:06:24.485Z,42.17
2022-11-16T01:08:51.489Z,45.97
2022-11-16T01:11:37.601Z,42.37
2022-11-16T01:14:08.972Z,38.10
2022-11-16T01:16:36.208Z,44.00
2022-11-16T01:19:05.370Z,43.23
2022-11-16T01:21:33.136Z,42.20
2022-11-16T01:24:00.044Z,47.10
2022-11-16T01:26:26.941Z,43.73
2022-11-16T01:28:53.956Z,45.27
2022-11-16T01:31:21.582Z,43.73
2022-11-16T01:33:50.948Z,43.13
2022-11-16T01:36:22.693Z,42.50
2022-11-16T01:38:50.651Z,43.37
2022-11-16T01:41:25.094Z,39.37
2022-11-16T01:44:05.302Z,43.67
2022-11-16T01:46:41.402Z,42.50
2022-11-16T01:49:16.858Z,44.13
2022-11-16T01:51:49.757Z,46.33
2022-11-16T01:54:17.133Z,47.70
2022-11-16T01:56:56.013Z,44.57
2022-11-16T01:59:48.860Z,50.30
2022-11-16T02:02:19.806Z,54.57
2022-11-16T02:04:48.664Z,50.23
2022-11-16T02:08:00.617Z,57.30
2022-11-16T02:11:06.869Z,54.17
2022-11-16T02:13:59.031Z,52.87
2022-11-16T02:16:31.941Z,53.90
2022-11-16T02:19:33.896Z,50.10
2022-11-16T02:22:19.062Z,53.23
2022-11-16T02:24:57.114Z,48.90
2022-11-16T02:27:40.405Z,48.73
2022-11-16T02:30:07.538Z,48.77
2022-11-16T02:33:00.051Z,51.17
2022-11-16T02:35:33.700Z,43.40
2022-11-16T02:38:40.111Z,48.37
2022-11-16T02:41:12.026Z,45.87
2022-11-16T02:43:44.952Z,48.87
2022-11-16T02:46:30.176Z,47.03
2022-11-16T02:49:02.726Z,48.63
2022-11-16T02:51:31.417Z,48.73
2022-11-16T02:54:04.843Z,52.67
2022-11-16T02:56:41.895Z,50.30
2022-11-16T02:59:13.110Z,55.37
2022-11-16T03:01:52.161Z,54.37
2022-11-16T03:04:32.672Z,53.60
2022-11-16T03:07:03.998Z,54.53
2022-11-16T03:09:35.773Z,52.57
2022-11-16T03:12:10.998Z,49.83
2022-11-16T03:15:01.700Z,45.57
2022-11-16T03:17:44.565Z,48.43
2022-11-16T03:20:27.054Z,46.63
2022-11-16T03:23:05.214Z,42.23
2022-11-16T03:25:40.946Z,45.60
2022-11-16T03:28:20.208Z,50.83
2022-11-16T03:31:02.473Z,49.33
2022-11-16T03:33:34.576Z,43.73
2022-11-16T03:36:10.864Z,44.07
2022-11-16T03:38:40.776Z,43.47
2022-11-16T03:41:09.812Z,41.83
2022-11-16T03:43:39.014Z,46.33
2022-11-16T03:46:07.559Z,46.33
2022-11-16T03:48:40.099Z,45.07
2022-11-16T03:51:18.528Z,44.40
2022-11-16T03:53:45.416Z,47.43
2022-11-16T03:56:12.926Z,41.47
2022-11-16T03:58:39.913Z,47.57
2022-11-16T04:01:07.154Z,49.83
2022-11-16T04:03:34.254Z,44.87
2022-11-16T04:06:19.993Z,46.60
2022-11-16T04:09:05.731Z,45.47
2022-11-16T04:11:51.161Z,46.17
2022-11-16T04:14:39.631Z,46.20
2022-11-16T04:17:31.394Z,46.53
2022-11-16T04:20:16.839Z,45.67
2022-11-16T04:23:29.296Z,54.50
2022-11-16T04:25:56.516Z,47.83
2022-11-16T04:28:35.076Z,42.87
2022-11-16T04:31:23.665Z,53.00
2022-11-16T04:34:25.517Z,51.00
2022-11-16T04:37:14.112Z,49.53
2022-11-16T04:39:41.364Z,53.07
2022-11-16T04:42:19.701Z,48.43
2022-11-16T04:45:07.847Z,53.63
2022-11-16T04:47:54.906Z,46.73
2022-11-16T04:50:27.180Z,46.23
2022-11-16T04:52:54.196Z,47.13
2022-11-16T04:55:21.064Z,46.37
2022-11-16T04:57:49.583Z,50.30
2022-11-16T05:00:17.421Z,52.63
2022-11-16T05:02:45.280Z,51.00
2022-11-16T05:05:12.822Z,48.60
2022-11-16T05:07:43.032Z,50.03
2022-11-16T05:10:16.315Z,51.87
2022-11-16T05:12:43.444Z,50.13
2022-11-16T05:15:11.179Z,49.33
2022-11-16T05:17:40.037Z,54.93
2022-11-16T05:20:31.789Z,51.93
2022-11-16T05:23:03.826Z,50.53
2022-11-16T05:25:36.645Z,50.60
2022-11-16T05:28:06.646Z,43.20
2022-11-16T05:30:37.660Z,48.13
2022-11-16T05:33:05.717Z,50.20
2022-11-16T05:35:37.161Z,49.70
2022-11-16T05:38:04.062Z,53.97
2022-11-16T05:40:34.625Z,60.10
2022-11-16T05:43:01.539Z,50.47
2022-11-16T05:45:32.311Z,50.47
2022-11-16T05:48:00.576Z,47.97
2022-11-16T05:50:27.684Z,50.77
2022-11-16T05:53:06.411Z,52.83
2022-11-16T05:55:35.872Z,52.43
2022-11-16T05:58:02.855Z,55.80
2022-11-16T06:00:31.670Z,57.30
2022-11-16T06:03:00.020Z,57.73
2022-11-16T06:05:30.912Z,57.53
2022-11-16T06:07:59.261Z,63.57
2022-11-16T06:10:26.341Z,60.77
2022-11-16T06:12:54.229Z,63.63
2022-11-16T06:15:21.331Z,54.27
2022-11-16T06:17:48.243Z,57.40
2022-11-16T06:20:18.493Z,58.70
2022-11-16T06:22:47.145Z,62.83
2022-11-16T06:25:14.137Z,60.37
2022-11-16T06:27:43.729Z,63.93
2022-11-16T06:30:13.795Z,61.43
2022-11-16T06:32:41.637Z,70.50
2022-11-16T06:35:09.603Z,71.07
2022-11-16T06:37:37.682Z,75.73
2022-11-16T06:40:06.647Z,58.80
2022-11-16T06:42:37.036Z,69.03
2022-11-16T06:45:04.544Z,69.20
2022-11-16T06:47:37.756Z,72.90
2022-11-16T06:50:05.422Z,76.07
2022-11-16T06:52:33.989Z,64.23
2022-11-16T06:55:01.350Z,53.07
2022-11-16T06:57:35.588Z,53.03
2022-11-16T07:00:04.576Z,56.50
2022-11-16T07:02:33.834Z,54.90
2022-11-16T07:05:03.904Z,44.20
2022-11-16T07:07:33.301Z,48.53
2022-11-16T07:10:02.934Z,57.73
2022-11-16T07:12:31.385Z,53.77
2022-11-16T07:14:59.250Z,57.70
2022-11-16T07:17:29.743Z,56.00
2022-11-16T07:20:02.597Z,62.20
2022-11-16T07:22:34.589Z,61.53
2022-11-16T07:25:03.242Z,81.53
2022-11-16T07:27:30.215Z,76.27
2022-11-16T07:29:59.408Z,83.37
2022-11-16T07:32:58.240Z,62.40
2022-11-16T07:35:45.496Z,63.60
2022-11-16T07:38:17.727Z,66.30
2022-11-16T07:40:46.112Z,60.50
2022-11-16T07:43:16.483Z,61.73
2022-11-16T07:49:09.869Z,66.93
2022-11-16T07:51:51.238Z,60.10
2022-11-16T07:54:44.318Z,62.47
2022-11-16T07:57:11.392Z,53.63
2022-11-16T07:59:41.198Z,78.30
2022-11-16T08:02:10.363Z,73.90
2022-11-16T08:04:40.295Z,65.50
2022-11-16T08:07:09.156Z,69.53
2022-11-16T08:09:43.633Z,71.27
2022-11-16T08:12:15.348Z,81.20
2022-11-16T08:14:43.352Z,78.33
2022-11-16T08:17:12.275Z,84.77
2022-11-16T08:19:40.416Z,77.90
2022-11-16T08:22:09.732Z,71.40
2022-11-16T08:24:38.766Z,66.80
2022-11-16T08:27:05.787Z,59.43
2022-11-16T08:29:36.032Z,54.73
2022-11-16T08:32:05.421Z,56.60
2022-11-16T08:34:34.993Z,56.43
2022-11-16T08:37:03.989Z,53.40
2022-11-16T08:39:43.608Z,46.10
2022-11-16T08:42:10.666Z,51.87
2022-11-16T08:44:38.972Z,49.23
2022-11-16T08:47:10.881Z,53.27
2022-11-16T08:49:48.283Z,49.83
2022-11-16T08:52:30.428Z,46.03
2022-11-16T08:54:58.777Z,51.10
2022-11-16T08:57:26.012Z,51.80
2022-11-16T08:59:57.734Z,50.03
2022-11-16T09:02:25.781Z,50.57
2022-11-16T09:04:54.512Z,50.47
2022-11-16T09:07:22.673Z,51.27
2022-11-16T09:09:49.770Z,49.57
2022-11-16T09:15:01.751Z,50.77
2022-11-16T09:17:30.163Z,42.13
2022-11-16T09:19:57.115Z,46.43
2022-11-16T09:22:24.156Z,43.37
2022-11-16T09:24:51.179Z,49.03
2022-11-16T09:27:18.113Z,46.77
2022-11-16T09:29:44.934Z,45.77
2022-11-16T09:32:16.011Z,46.67
2022-11-16T09:35:37.259Z,47.83
2022-11-16T09:38:05.805Z,42.33
2022-11-16T09:40:42.278Z,40.13
2022-11-16T09:43:18.329Z,44.97
2022-11-16T09:46:29.691Z,35.10
2022-11-16T09:49:00.409Z,40.87
2022-11-16T09:54:27.622Z,36.10
2022-11-16T09:56:58.971Z,37.03
2022-11-16T09:59:51.148Z,40.53
2022-11-16T10:02:24.298Z,45.90
2022-11-16T10:05:17.767Z,38.13
2022-11-16T10:07:49.282Z,38.30
2022-11-16T10:10:34.938Z,31.43
2022-11-16T10:13:23.693Z,30.40
2022-11-16T10:15:53.624Z,30.33
2022-11-16T10:18:29.543Z,32.37
2022-11-16T10:21:13.994Z,37.10
2022-11-16T10:24:24.059Z,28.13
2022-11-16T10:26:51.534Z,29.60
2022-11-16T10:29:39.925Z,29.90
2022-11-16T10:32:28.324Z,29.80
2022-11-16T10:34:55.334Z,30.80
2022-11-16T10:37:27.783Z,29.23
2022-11-16T10:39:54.693Z,27.57
2022-11-16T10:42:35.808Z,28.37
2022-11-16T10:45:15.478Z,26.87
2022-11-16T10:47:51.225Z,26.43
2022-11-16T10:50:31.919Z,24.07
2022-11-16T10:53:01.314Z,28.33
2022-11-16T10:55:31.035Z,22.97
2022-11-16T10:58:03.005Z,30.80
2022-11-16T11:00:37.856Z,22.63
2022-11-16T11:03:06.991Z,25.03
2022-11-16T11:05:39.250Z,21.63
2022-11-16T11:08:11.437Z,24.70
2022-11-16T11:13:27.016Z,17.93
2022-11-16T11:16:17.992Z,18.43
2022-11-16T11:18:46.951Z,22.10
2022-11-16T11:21:19.460Z,24.27
2022-11-16T11:23:52.630Z,22.93
2022-11-16T11:26:42.929Z,23.07
2022-11-16T11:29:28.194Z,25.67
2022-11-16T11:32:00.142Z,24.20
2022-11-16T11:34:44.126Z,21.80
2022-11-16T11:37:19.887Z,19.83
2022-11-16T11:39:46.856Z,20.13
2022-11-16T11:42:13.693Z,24.87
2022-11-16T11:44:49.883Z,24.67
2022-11-16T11:47:58.791Z,25.90
2022-11-16T11:50:49.351Z,27.47
2022-11-16T11:53:39.943Z,26.90
2022-11-16T11:56:10.691Z,23.17
2022-11-16T11:58:41.161Z,35.63
2022-11-16T12:01:29.510Z,22.83
2022-11-16T12:03:56.329Z,24.73
2022-11-16T12:06:31.495Z,19.70
2022-11-16T12:09:28.209Z,21.77
2022-11-16T12:12:16.528Z,20.60
2022-11-16T12:15:18.011Z,23.13
2022-11-16T12:17:53.893Z,23.40
2022-11-16T12:20:30.121Z,20.90
2022-11-16T12:23:17.177Z,21.63
2022-11-16T12:25:55.005Z,18.67
2022-11-16T12:28:22.253Z,18.90
2022-11-16T12:31:22.780Z,14.57
2022-11-16T12:34:16.126Z,25.13
2022-11-16T12:37:21.343Z,24.60
2022-11-16T12:40:38.157Z,19.63
2022-11-16T12:43:18.274Z,24.80
2022-11-16T12:46:00.829Z,18.67
2022-11-16T12:48:50.936Z,21.93
2022-11-16T12:51:49.058Z,24.97
2022-11-16T12:54:18.810Z,19.70
2022-11-16T12:57:22.767Z,19.13
2022-11-16T13:00:12.096Z,21.50
2022-11-16T13:03:00.739Z,21.60
2022-11-16T13:05:54.452Z,23.90
2022-11-16T13:08:41.527Z,27.67
2022-11-16T13:11:18.830Z,28.27
2022-11-16T13:13:53.387Z,24.27
2022-11-16T13:16:24.007Z,30.70
2022-11-16T13:18:52.315Z,31.40
2022-11-16T13:21:35.706Z,33.07
2022-11-16T13:24:35.047Z,31.43
2022-11-16T13:27:39.357Z,28.70
2022-11-16T13:30:27.690Z,34.07
2022-11-16T13:33:22.482Z,27.97
2022-11-16T13:35:49.436Z,30.10
2022-11-16T13:38:54.473Z,34.23
2022-11-16T13:41:34.464Z,29.80
2022-11-16T13:44:20.454Z,31.27
2022-11-16T13:46:55.727Z,28.13
2022-11-16T13:49:28.782Z,27.43
2022-11-16T13:52:21.950Z,29.27
2022-11-16T13:54:53.688Z,40.07
2022-11-16T13:57:49.270Z,28.93
2022-11-16T14:00:33.610Z,28.00
2022-11-16T14:03:16.092Z,33.30
2022-11-16T14:05:44.295Z,35.77
2022-11-16T14:08:20.041Z,34.77
2022-11-16T14:10:52.879Z,36.67
2022-11-16T14:13:50.328Z,37.07
2022-11-16T14:16:17.720Z,40.73
2022-11-16T14:18:51.008Z,36.33
2022-11-16T14:21:20.619Z,33.83
2022-11-16T14:24:12.369Z,31.43
2022-11-16T14:27:16.974Z,34.60
2022-11-16T14:30:06.011Z,34.63
2022-11-16T14:32:47.225Z,34.30
2022-11-16T14:35:26.585Z,40.80
2022-11-16T14:41:20.993Z,35.53
2022-11-16T14:43:54.221Z,39.63
2022-11-16T14:49:48.802Z,43.83
2022-11-16T14:52:18.761Z,47.17
2022-11-16T14:54:55.349Z,40.53
2022-11-16T14:57:24.295Z,42.37
2022-11-16T15:00:09.656Z,40.40
2022-11-16T15:02:37.461Z,43.03
2022-11-16T15:05:06.955Z,43.87
2022-11-16T15:07:34.880Z,40.47
2022-11-16T15:10:02.110Z,52.17
2022-11-16T15:12:44.077Z,53.43
2022-11-16T15:15:10.926Z,50.93
2022-11-16T15:17:44.365Z,37.97
2022-11-16T15:20:19.837Z,56.67
2022-11-16T15:22:51.151Z,49.20
2022-11-16T15:25:34.440Z,46.97
2022-11-16T15:28:17.078Z,46.97
2022-11-16T15:30:51.036Z,40.17
2022-11-16T15:33:45.280Z,46.37
2022-11-16T15:36:31.477Z,49.00
2022-11-16T15:39:02.114Z,55.37
2022-11-16T15:41:30.234Z,45.03
2022-11-16T15:44:14.118Z,56.53
2022-11-16T15:46:47.357Z,47.30
2022-11-16T15:49:38.604Z,49.40
2022-11-16T15:52:05.925Z,64.73
2022-11-16T15:54:54.061Z,51.57
2022-11-16T15:57:23.485Z,57.20
2022-11-16T15:59:57.193Z,46.00
2022-11-16T16:02:29.839Z,62.27
2022-11-16T16:04:56.962Z,49.97
2022-11-16T16:07:42.613Z,56.63
2022-11-16T16:10:21.226Z,49.50
2022-11-16T16:12:52.914Z,50.37
2022-11-16T16:15:36.915Z,85.03
2022-11-16T16:18:40.639Z,80.87
2022-11-16T16:21:09.119Z,66.77
2022-11-16T16:23:51.525Z,77.53
2022-11-16T16:26:18.427Z,141.33
2022-11-16T16:28:47.213Z,101.07
2022-11-16T16:31:18.382Z,82.37
2022-11-16T16:33:45.408Z,70.77
2022-11-16T16:36:13.742Z,64.53
2022-11-16T16:38:43.996Z,80.30
2022-11-16T16:41:23.793Z,75.20
2022-11-16T16:43:54.157Z,71.70
2022-11-16T16:46:21.832Z,68.63
2022-11-16T16:48:49.179Z,68.30
2022-11-16T16:51:16.021Z,104.20
2022-11-16T16:53:42.880Z,158.40
2022-11-16T16:56:19.763Z,158.63
2022-11-16T16:58:58.819Z,92.13
2022-11-16T17:01:27.775Z,103.60
2022-11-16T17:03:56.162Z,73.03
2022-11-16T17:06:23.498Z,64.60
2022-11-16T17:08:51.313Z,72.50
2022-11-16T17:11:18.193Z,70.73
2022-11-16T17:13:45.702Z,68.27
2022-11-16T17:16:13.122Z,77.90
2022-11-16T17:18:40.951Z,71.07
2022-11-16T17:21:09.695Z,67.00
2022-11-16T17:23:37.634Z,71.63
2022-11-16T17:26:06.549Z,70.17
2022-11-16T17:28:34.004Z,105.17
2022-11-16T17:31:09.920Z,100.77
2022-11-16T17:33:41.680Z,68.90
2022-11-16T17:36:15.134Z,81.17
2022-11-16T17:38:42.090Z,71.10
2022-11-16T17:41:19.395Z,93.43
2022-11-16T17:43:47.247Z,73.10
2022-11-16T17:46:19.175Z,87.73
2022-11-16T17:48:47.835Z,84.50
2022-11-16T17:51:18.104Z,88.00
2022-11-16T17:53:45.671Z,100.73
2022-11-16T17:56:14.592Z,91.67
2022-11-16T17:58:41.778Z,91.87
2022-11-16T18:01:08.724Z,91.57
2022-11-16T18:03:37.366Z,93.07
2022-11-16T18:06:15.983Z,84.20
2022-11-16T18:08:45.653Z,85.07
2022-11-16T18:11:21.113Z,80.57
2022-11-16T18:13:51.788Z,82.70
2022-11-16T18:16:21.126Z,76.83
2022-11-16T18:18:50.214Z,77.30
2022-11-16T18:21:20.781Z,78.23
2022-11-16T18:23:48.132Z,72.63
2022-11-16T18:26:21.127Z,76.53
2022-11-16T18:28:49.411Z,69.93
2022-11-16T18:31:18.779Z,76.70
2022-11-16T18:33:47.107Z,72.03
2022-11-16T18:36:19.068Z,82.03
2022-11-16T18:38:47.689Z,81.20
2022-11-16T18:41:17.218Z,83.50
2022-11-16T18:43:52.688Z,89.07
2022-11-16T18:46:24.118Z,86.00
2022-11-16T18:48:51.664Z,82.10
2022-11-16T18:51:20.942Z,70.30
2022-11-16T18:53:48.877Z,73.83
2022-11-16T18:56:16.486Z,72.77
2022-11-16T18:58:52.330Z,70.57
2022-11-16T19:01:22.835Z,74.80
2022-11-16T19:03:51.181Z,70.27
2022-11-16T19:06:18.461Z,75.50
2022-11-16T19:08:53.740Z,76.23
2022-11-16T19:11:22.738Z,73.57
2022-11-16T19:14:04.180Z,68.30
2022-11-16T19:16:31.773Z,62.37
2022-11-16T19:18:59.960Z,62.50
2022-11-16T19:21:27.853Z,72.30
2022-11-16T19:23:56.228Z,72.63
2022-11-16T19:26:26.466Z,72.20
2022-11-16T19:28:54.162Z,78.20
2022-11-16T19:31:27.008Z,95.43
2022-11-16T19:34:02.249Z,91.30
2022-11-16T19:36:30.606Z,87.63
2022-11-16T19:38:57.824Z,85.47
2022-11-16T19:41:25.996Z,81.27
2022-11-16T19:43:59.073Z,78.17
2022-11-16T19:46:32.578Z,77.03
2022-11-16T19:49:00.472Z,78.23
2022-11-16T19:51:29.333Z,76.83
2022-11-16T19:53:56.978Z,83.53
2022-11-16T19:56:25.338Z,81.13
2022-11-16T19:58:52.749Z,82.93
2022-11-16T20:01:28.742Z,80.53
2022-11-16T20:03:57.944Z,76.80
2022-11-16T20:06:29.198Z,77.47
2022-11-16T20:09:03.725Z,75.13
2022-11-16T20:11:34.112Z,72.13
2022-11-16T20:14:03.049Z,71.60
2022-11-16T20:16:38.159Z,78.97
2022-11-16T20:19:07.532Z,84.97
2022-11-16T20:21:41.997Z,76.73
2022-11-16T20:24:14.419Z,81.73
2022-11-16T20:26:44.758Z,79.97
2022-11-16T20:29:12.935Z,78.60
2022-11-16T20:31:42.743Z,82.43
2022-11-16T20:34:14.198Z,74.57
2022-11-16T20:36:43.780Z,76.70
2022-11-16T20:39:16.238Z,64.00
2022-11-16T20:41:44.287Z,64.50
2022-11-16T20:44:18.299Z,67.77
2022-11-16T20:46:45.425Z,64.93
2022-11-16T20:49:12.692Z,63.83
2022-11-16T20:51:39.774Z,69.10
2022-11-16T20:54:07.100Z,71.17
2022-11-16T20:56:34.405Z,72.90
2022-11-16T20:59:01.919Z,75.50
2022-11-16T21:01:31.939Z,75.33
2022-11-16T21:04:05.983Z,71.77
2022-11-16T21:06:33.725Z,71.70
2022-11-16T21:09:01.025Z,75.27
2022-11-16T21:11:51.266Z,65.53
2022-11-16T21:14:19.434Z,69.50
2022-11-16T21:16:46.401Z,70.93
2022-11-16T21:19:13.584Z,73.50
2022-11-16T21:21:40.973Z,76.30
2022-11-16T21:24:09.011Z,92.97
2022-11-16T21:26:37.118Z,75.07
2022-11-16T21:29:04.640Z,71.97
2022-11-16T21:31:35.153Z,74.50
2022-11-16T21:34:02.899Z,75.77
2022-11-16T21:36:31.430Z,72.57
2022-11-16T21:38:58.641Z,70.77
2022-11-16T21:41:26.146Z,66.17
2022-11-16T21:43:53.419Z,69.43
2022-11-16T21:46:24.951Z,69.83
2022-11-16T21:48:53.733Z,62.47
2022-11-16T21:51:22.386Z,65.20
2022-11-16T21:53:49.291Z,69.13
2022-11-16T21:56:19.286Z,65.30
2022-11-16T21:58:46.598Z,66.33
2022-11-16T22:01:16.052Z,68.40
2022-11-16T22:03:44.746Z,73.07
2022-11-16T22:06:33.000Z,62.90
2022-11-16T22:09:00.181Z,68.70
2022-11-16T22:11:27.047Z,66.30
2022-11-16T22:13:53.850Z,63.00
2022-11-16T22:16:23.501Z,63.20
2022-11-16T22:18:51.101Z,66.73
2022-11-16T22:21:17.939Z,63.17
2022-11-16T22:23:45.073Z,65.13
2022-11-16T22:26:13.473Z,64.50
2022-11-16T22:28:40.725Z,63.73
2022-11-16T22:31:14.844Z,62.20
2022-11-16T22:33:42.272Z,66.93
2022-11-16T22:36:10.598Z,64.40
2022-11-16T22:38:38.036Z,59.77
2022-11-16T22:41:05.376Z,61.00
2022-11-16T22:43:32.869Z,62.27
2022-11-16T22:46:02.409Z,61.10
2022-11-16T22:48:36.586Z,63.73
2022-11-16T22:51:27.306Z,63.47
2022-11-16T22:53:59.208Z,71.37
2022-11-16T22:56:26.858Z,61.00
2022-11-16T22:58:54.190Z,63.30
2022-11-16T23:01:21.474Z,62.47
2022-11-16T23:03:48.802Z,57.93
2022-11-16T23:06:16.721Z,61.67
2022-11-16T23:08:43.663Z,71.10
2022-11-16T23:11:32.904Z,59.87
2022-11-16T23:14:18.791Z,67.67
2022-11-16T23:16:47.246Z,59.63
2022-11-16T23:19:35.337Z,61.17
2022-11-16T23:22:21.293Z,67.37
2022-11-16T23:25:06.962Z,62.87
2022-11-16T23:27:41.690Z,68.13
2022-11-16T23:30:12.760Z,62.40
2022-11-16T23:32:41.454Z,60.07
2022-11-16T23:35:09.203Z,64.23
2022-11-16T23:37:53.598Z,60.53
2022-11-16T23:40:22.077Z,60.53
2022-11-16T23:43:07.401Z,56.30
2022-11-16T23:45:34.256Z,62.40
2022-11-16T23:48:01.160Z,62.20
2022-11-16T23:50:28.153Z,66.23
2022-11-16T23:52:55.004Z,64.80
2022-11-16T23:55:23.206Z,60.67
2022-11-16T23:57:50.917Z,60.53
